KMZZ

Marion Municipal Airport

Marion, Indiana, USA
METAR KMZZ 231055Z AUTO 24006KT 10SM OVC010 02/01 A2963 RMK AO2 T00150009
Observed Flight Rules
Jan-23 @ 10:55 UTC (52 minutes ago) Marginal Visual Flight Rules
Wind Visibility Clouds
240° at 6 knots 10 miles
  • Overcast at 1,000' AGL
Temperatures Readings
Current 2°C / 36°F
Dewpoint 1°C / 34°F
Humidity 93%
Altimeter 29.63" Hg
Pressure 1003 hPa
Elevation 262
METAR KMZZ 231055Z AUTO 24006KT 10SM OVC010 02/01 A2963 RMK AO2 T00150009
Observed Flight Rules
Jan-23 @ 10:55 UTC
(52 minutes ago)
MVFR
Wind Visibility
240° at 6 knots 10 miles
Clouds
  • Overcast at 1,000' AGL
Temperature Dewpoint
2°C / 36°F 1°C / 34°F
Humidity Altimeter Pressure
93% 29.63" Hg 1003 hPa